sensor_id;sensor_type;location;lat;lon;timestamp;temperature;humidity
30520;DHT22;17300;50.374;8.006;2023-01-16T00:02:08;10.30;52.40
30520;DHT22;17300;50.374;8.006;2023-01-16T00:04:35;10.30;52.40
30520;DHT22;17300;50.374;8.006;2023-01-16T00:07:01;10.30;52.40
30520;DHT22;17300;50.374;8.006;2023-01-16T00:09:28;10.30;52.40
30520;DHT22;17300;50.374;8.006;2023-01-16T00:11:55;10.30;52.40
30520;DHT22;17300;50.374;8.006;2023-01-16T00:14:23;10.30;52.40
30520;DHT22;17300;50.374;8.006;2023-01-16T00:16:49;10.30;52.40
30520;DHT22;17300;50.374;8.006;2023-01-16T00:19:16;10.30;52.40
30520;DHT22;17300;50.374;8.006;2023-01-16T00:21:43;10.30;52.40
30520;DHT22;17300;50.374;8.006;2023-01-16T00:24:13;10.30;52.40
30520;DHT22;17300;50.374;8.006;2023-01-16T00:26:40;10.40;52.40
30520;DHT22;17300;50.374;8.006;2023-01-16T00:29:06;10.40;52.40
30520;DHT22;17300;50.374;8.006;2023-01-16T00:31:34;10.40;53.00
30520;DHT22;17300;50.374;8.006;2023-01-16T00:34:01;10.40;52.30
30520;DHT22;17300;50.374;8.006;2023-01-16T00:36:27;10.40;52.30
30520;DHT22;17300;50.374;8.006;2023-01-16T00:38:54;10.40;52.20
30520;DHT22;17300;50.374;8.006;2023-01-16T00:41:21;10.40;52.20
30520;DHT22;17300;50.374;8.006;2023-01-16T00:43:48;10.40;52.20
30520;DHT22;17300;50.374;8.006;2023-01-16T00:46:14;10.40;52.20
30520;DHT22;17300;50.374;8.006;2023-01-16T00:48:42;10.40;52.30
30520;DHT22;17300;50.374;8.006;2023-01-16T00:51:09;10.40;52.30
30520;DHT22;17300;50.374;8.006;2023-01-16T00:53:36;10.40;52.30
30520;DHT22;17300;50.374;8.006;2023-01-16T00:56:03;10.40;52.30
30520;DHT22;17300;50.374;8.006;2023-01-16T00:58:30;10.50;52.40
30520;DHT22;17300;50.374;8.006;2023-01-16T01:00:57;10.50;52.40
30520;DHT22;17300;50.374;8.006;2023-01-16T01:03:24;10.40;52.30
30520;DHT22;17300;50.374;8.006;2023-01-16T01:05:52;10.50;52.30
30520;DHT22;17300;50.374;8.006;2023-01-16T01:08:18;10.50;52.30
30520;DHT22;17300;50.374;8.006;2023-01-16T01:10:45;10.50;52.30
30520;DHT22;17300;50.374;8.006;2023-01-16T01:13:12;10.50;52.20
30520;DHT22;17300;50.374;8.006;2023-01-16T01:15:39;10.50;52.20
30520;DHT22;17300;50.374;8.006;2023-01-16T01:18:06;10.50;52.20
30520;DHT22;17300;50.374;8.006;2023-01-16T01:20:32;10.50;52.20
30520;DHT22;17300;50.374;8.006;2023-01-16T01:23:00;10.50;52.20
30520;DHT22;17300;50.374;8.006;2023-01-16T01:25:27;10.50;52.20
30520;DHT22;17300;50.374;8.006;2023-01-16T01:27:54;10.60;52.30
30520;DHT22;17300;50.374;8.006;2023-01-16T01:30:20;10.60;52.30
30520;DHT22;17300;50.374;8.006;2023-01-16T01:32:47;10.60;52.30
30520;DHT22;17300;50.374;8.006;2023-01-16T01:35:14;10.60;52.20
30520;DHT22;17300;50.374;8.006;2023-01-16T01:37:42;10.60;52.20
30520;DHT22;17300;50.374;8.006;2023-01-16T01:40:11;10.60;52.20
30520;DHT22;17300;50.374;8.006;2023-01-16T01:42:38;10.70;52.20
30520;DHT22;17300;50.374;8.006;2023-01-16T01:45:19;10.70;52.20
30520;DHT22;17300;50.374;8.006;2023-01-16T01:47:51;10.60;52.00
30520;DHT22;17300;50.374;8.006;2023-01-16T01:50:26;10.60;51.80
30520;DHT22;17300;50.374;8.006;2023-01-16T01:52:57;10.60;51.80
30520;DHT22;17300;50.374;8.006;2023-01-16T01:55:27;10.60;51.80
30520;DHT22;17300;50.374;8.006;2023-01-16T01:57:56;10.50;51.70
30520;DHT22;17300;50.374;8.006;2023-01-16T02:00:27;10.50;51.80
30520;DHT22;17300;50.374;8.006;2023-01-16T02:03:00;10.50;51.80
30520;DHT22;17300;50.374;8.006;2023-01-16T02:05:30;10.50;51.80
30520;DHT22;17300;50.374;8.006;2023-01-16T02:08:00;10.50;51.80
30520;DHT22;17300;50.374;8.006;2023-01-16T02:10:34;10.40;51.60
30520;DHT22;17300;50.374;8.006;2023-01-16T02:13:03;10.40;51.60
30520;DHT22;17300;50.374;8.006;2023-01-16T02:15:30;10.30;51.50
30520;DHT22;17300;50.374;8.006;2023-01-16T02:17:57;10.20;51.50
30520;DHT22;17300;50.374;8.006;2023-01-16T02:20:52;10.20;51.50
30520;DHT22;17300;50.374;8.006;2023-01-16T02:23:59;10.10;51.60
30520;DHT22;17300;50.374;8.006;2023-01-16T02:27:02;10.00;51.60
30520;DHT22;17300;50.374;8.006;2023-01-16T02:29:57;9.90;52.50
30520;DHT22;17300;50.374;8.006;2023-01-16T02:32:44;9.90;52.60
30520;DHT22;17300;50.374;8.006;2023-01-16T02:35:25;9.80;52.50
30520;DHT22;17300;50.374;8.006;2023-01-16T02:37:55;9.80;52.90
30520;DHT22;17300;50.374;8.006;2023-01-16T02:40:31;9.70;52.70
30520;DHT22;17300;50.374;8.006;2023-01-16T02:43:08;9.70;52.90
30520;DHT22;17300;50.374;8.006;2023-01-16T02:45:43;9.60;53.10
30520;DHT22;17300;50.374;8.006;2023-01-16T02:48:21;9.70;53.40
30520;DHT22;17300;50.374;8.006;2023-01-16T02:50:56;9.60;53.30
30520;DHT22;17300;50.374;8.006;2023-01-16T02:53:29;9.70;53.40
30520;DHT22;17300;50.374;8.006;2023-01-16T02:55:57;9.70;53.40
30520;DHT22;17300;50.374;8.006;2023-01-16T02:58:30;9.70;53.40
30520;DHT22;17300;50.374;8.006;2023-01-16T03:00:59;9.70;53.40
30520;DHT22;17300;50.374;8.006;2023-01-16T03:03:38;9.80;53.50
30520;DHT22;17300;50.374;8.006;2023-01-16T03:09:15;9.80;53.60
30520;DHT22;17300;50.374;8.006;2023-01-16T03:11:54;9.80;53.50
30520;DHT22;17300;50.374;8.006;2023-01-16T03:14:31;9.90;53.60
30520;DHT22;17300;50.374;8.006;2023-01-16T03:17:08;9.90;53.70
30520;DHT22;17300;50.374;8.006;2023-01-16T03:19:52;10.00;52.80
30520;DHT22;17300;50.374;8.006;2023-01-16T03:22:25;10.00;52.80
30520;DHT22;17300;50.374;8.006;2023-01-16T03:25:02;10.00;52.80
30520;DHT22;17300;50.374;8.006;2023-01-16T03:27:40;10.10;52.90
30520;DHT22;17300;50.374;8.006;2023-01-16T03:30:12;10.10;52.90
30520;DHT22;17300;50.374;8.006;2023-01-16T03:32:44;10.10;52.90
30520;DHT22;17300;50.374;8.006;2023-01-16T03:35:16;10.20;52.90
30520;DHT22;17300;50.374;8.006;2023-01-16T03:37:47;10.20;52.80
30520;DHT22;17300;50.374;8.006;2023-01-16T03:40:20;10.20;52.70
30520;DHT22;17300;50.374;8.006;2023-01-16T03:42:52;10.20;52.70
30520;DHT22;17300;50.374;8.006;2023-01-16T03:45:25;10.30;52.70
30520;DHT22;17300;50.374;8.006;2023-01-16T03:47:58;10.30;52.70
30520;DHT22;17300;50.374;8.006;2023-01-16T03:50:27;10.30;52.60
30520;DHT22;17300;50.374;8.006;2023-01-16T03:52:58;10.30;52.50
30520;DHT22;17300;50.374;8.006;2023-01-16T03:55:31;10.30;52.40
30520;DHT22;17300;50.374;8.006;2023-01-16T03:58:02;10.30;52.40
30520;DHT22;17300;50.374;8.006;2023-01-16T04:00:35;10.30;52.40
30520;DHT22;17300;50.374;8.006;2023-01-16T04:03:05;10.30;52.40
30520;DHT22;17300;50.374;8.006;2023-01-16T04:05:40;10.30;52.30
30520;DHT22;17300;50.374;8.006;2023-01-16T04:08:10;10.30;52.30
30520;DHT22;17300;50.374;8.006;2023-01-16T04:10:42;10.30;52.20
30520;DHT22;17300;50.374;8.006;2023-01-16T04:13:13;10.30;52.20
30520;DHT22;17300;50.374;8.006;2023-01-16T04:15:43;10.30;52.10
30520;DHT22;17300;50.374;8.006;2023-01-16T04:18:11;10.30;52.10
30520;DHT22;17300;50.374;8.006;2023-01-16T04:20:39;10.30;52.00
30520;DHT22;17300;50.374;8.006;2023-01-16T04:23:08;10.20;51.90
30520;DHT22;17300;50.374;8.006;2023-01-16T04:25:34;10.20;51.90
30520;DHT22;17300;50.374;8.006;2023-01-16T04:28:01;10.10;51.80
30520;DHT22;17300;50.374;8.006;2023-01-16T04:30:28;10.10;51.90
30520;DHT22;17300;50.374;8.006;2023-01-16T04:32:54;10.00;51.80
30520;DHT22;17300;50.374;8.006;2023-01-16T04:35:21;10.00;52.60
30520;DHT22;17300;50.374;8.006;2023-01-16T04:37:49;9.90;52.80
30520;DHT22;17300;50.374;8.006;2023-01-16T04:40:16;9.90;52.90
30520;DHT22;17300;50.374;8.006;2023-01-16T04:42:43;9.90;52.90
30520;DHT22;17300;50.374;8.006;2023-01-16T04:45:10;9.90;52.90
30520;DHT22;17300;50.374;8.006;2023-01-16T04:47:36;9.80;52.80
30520;DHT22;17300;50.374;8.006;2023-01-16T04:50:04;9.80;52.80
30520;DHT22;17300;50.374;8.006;2023-01-16T04:52:31;9.80;52.90
30520;DHT22;17300;50.374;8.006;2023-01-16T04:54:59;9.80;53.00
30520;DHT22;17300;50.374;8.006;2023-01-16T04:57:25;9.80;53.00
30520;DHT22;17300;50.374;8.006;2023-01-16T04:59:52;9.80;53.00
30520;DHT22;17300;50.374;8.006;2023-01-16T05:02:19;9.70;52.90
30520;DHT22;17300;50.374;8.006;2023-01-16T05:04:45;9.70;52.90
30520;DHT22;17300;50.374;8.006;2023-01-16T05:07:12;9.70;52.90
30520;DHT22;17300;50.374;8.006;2023-01-16T05:09:39;9.70;53.00
30520;DHT22;17300;50.374;8.006;2023-01-16T05:12:07;9.70;53.10
30520;DHT22;17300;50.374;8.006;2023-01-16T05:14:34;9.70;53.20
30520;DHT22;17300;50.374;8.006;2023-01-16T05:17:00;9.70;53.30
30520;DHT22;17300;50.374;8.006;2023-01-16T05:19:27;9.70;53.30
30520;DHT22;17300;50.374;8.006;2023-01-16T05:21:54;9.70;53.40
30520;DHT22;17300;50.374;8.006;2023-01-16T05:24:20;9.80;53.50
30520;DHT22;17300;50.374;8.006;2023-01-16T05:26:47;9.80;53.50
30520;DHT22;17300;50.374;8.006;2023-01-16T05:29:15;9.80;53.40
30520;DHT22;17300;50.374;8.006;2023-01-16T05:31:42;9.80;53.40
30520;DHT22;17300;50.374;8.006;2023-01-16T05:34:08;9.90;53.70
30520;DHT22;17300;50.374;8.006;2023-01-16T05:36:35;9.90;54.10
30520;DHT22;17300;50.374;8.006;2023-01-16T05:39:02;9.90;54.20
30520;DHT22;17300;50.374;8.006;2023-01-16T05:41:29;10.00;53.30
30520;DHT22;17300;50.374;8.006;2023-01-16T05:43:56;10.00;53.50
30520;DHT22;17300;50.374;8.006;2023-01-16T05:46:24;10.10;53.80
30520;DHT22;17300;50.374;8.006;2023-01-16T05:48:50;10.20;53.70
30520;DHT22;17300;50.374;8.006;2023-01-16T05:51:17;10.20;53.40
30520;DHT22;17300;50.374;8.006;2023-01-16T05:53:45;10.20;53.10
30520;DHT22;17300;50.374;8.006;2023-01-16T05:56:21;10.30;53.00
30520;DHT22;17300;50.374;8.006;2023-01-16T05:58:48;10.40;53.00
30520;DHT22;17300;50.374;8.006;2023-01-16T06:01:15;10.40;52.80
30520;DHT22;17300;50.374;8.006;2023-01-16T06:03:43;10.40;52.50
30520;DHT22;17300;50.374;8.006;2023-01-16T06:06:09;10.40;52.40
30520;DHT22;17300;50.374;8.006;2023-01-16T06:08:36;10.40;52.20
30520;DHT22;17300;50.374;8.006;2023-01-16T06:11:03;10.40;52.10
30520;DHT22;17300;50.374;8.006;2023-01-16T06:13:29;10.40;52.00
30520;DHT22;17300;50.374;8.006;2023-01-16T06:15:56;10.30;51.90
30520;DHT22;17300;50.374;8.006;2023-01-16T06:18:23;10.30;51.90
30520;DHT22;17300;50.374;8.006;2023-01-16T06:20:50;10.30;51.90
30520;DHT22;17300;50.374;8.006;2023-01-16T06:23:17;10.20;51.80
30520;DHT22;17300;50.374;8.006;2023-01-16T06:25:48;10.20;51.90
30520;DHT22;17300;50.374;8.006;2023-01-16T06:28:14;10.10;51.80
30520;DHT22;17300;50.374;8.006;2023-01-16T06:30:41;10.10;51.80
30520;DHT22;17300;50.374;8.006;2023-01-16T06:33:08;10.10;51.80
30520;DHT22;17300;50.374;8.006;2023-01-16T06:35:34;10.10;51.80
30520;DHT22;17300;50.374;8.006;2023-01-16T06:38:02;10.00;51.70
30520;DHT22;17300;50.374;8.006;2023-01-16T06:40:29;10.10;51.80
30520;DHT22;17300;50.374;8.006;2023-01-16T06:42:56;10.00;51.70
30520;DHT22;17300;50.374;8.006;2023-01-16T06:45:22;10.00;51.80
30520;DHT22;17300;50.374;8.006;2023-01-16T06:51:02;10.00;51.70
30520;DHT22;17300;50.374;8.006;2023-01-16T06:53:40;10.00;51.80
30520;DHT22;17300;50.374;8.006;2023-01-16T06:56:07;9.90;52.60
30520;DHT22;17300;50.374;8.006;2023-01-16T06:58:34;9.90;52.60
30520;DHT22;17300;50.374;8.006;2023-01-16T07:01:01;9.90;52.60
30520;DHT22;17300;50.374;8.006;2023-01-16T07:03:30;9.90;52.60
30520;DHT22;17300;50.374;8.006;2023-01-16T07:05:57;9.90;52.60
30520;DHT22;17300;50.374;8.006;2023-01-16T07:08:23;9.80;52.50
30520;DHT22;17300;50.374;8.006;2023-01-16T07:10:52;9.80;52.40
30520;DHT22;17300;50.374;8.006;2023-01-16T07:13:19;9.80;52.40
30520;DHT22;17300;50.374;8.006;2023-01-16T07:15:52;9.70;52.30
30520;DHT22;17300;50.374;8.006;2023-01-16T07:18:37;9.70;52.40
30520;DHT22;17300;50.374;8.006;2023-01-16T07:21:29;9.60;52.30
30520;DHT22;17300;50.374;8.006;2023-01-16T07:24:48;9.60;52.40
30520;DHT22;17300;50.374;8.006;2023-01-16T07:31:05;9.50;52.30
30520;DHT22;17300;50.374;8.006;2023-01-16T07:33:33;9.50;52.30
30520;DHT22;17300;50.374;8.006;2023-01-16T07:36:06;9.40;52.30
30520;DHT22;17300;50.374;8.006;2023-01-16T07:38:34;9.40;52.40
30520;DHT22;17300;50.374;8.006;2023-01-16T07:41:00;9.40;52.50
30520;DHT22;17300;50.374;8.006;2023-01-16T07:43:27;9.30;52.50
30520;DHT22;17300;50.374;8.006;2023-01-16T07:45:54;9.30;52.80
30520;DHT22;17300;50.374;8.006;2023-01-16T07:48:22;9.20;53.00
30520;DHT22;17300;50.374;8.006;2023-01-16T07:50:50;9.20;53.10
30520;DHT22;17300;50.374;8.006;2023-01-16T07:53:17;9.30;53.10
30520;DHT22;17300;50.374;8.006;2023-01-16T07:55:47;9.30;53.00
30520;DHT22;17300;50.374;8.006;2023-01-16T07:58:15;9.30;52.90
30520;DHT22;17300;50.374;8.006;2023-01-16T08:00:42;9.30;52.80
30520;DHT22;17300;50.374;8.006;2023-01-16T08:03:09;9.30;52.80
30520;DHT22;17300;50.374;8.006;2023-01-16T08:05:37;9.30;52.70
30520;DHT22;17300;50.374;8.006;2023-01-16T08:08:04;9.30;52.60
30520;DHT22;17300;50.374;8.006;2023-01-16T08:10:31;9.30;52.60
30520;DHT22;17300;50.374;8.006;2023-01-16T08:12:57;9.30;52.60
30520;DHT22;17300;50.374;8.006;2023-01-16T08:15:24;9.40;52.70
30520;DHT22;17300;50.374;8.006;2023-01-16T08:17:51;9.40;52.60
30520;DHT22;17300;50.374;8.006;2023-01-16T08:20:18;9.40;52.60
30520;DHT22;17300;50.374;8.006;2023-01-16T08:22:47;9.40;52.60
30520;DHT22;17300;50.374;8.006;2023-01-16T08:25:16;9.50;52.70
30520;DHT22;17300;50.374;8.006;2023-01-16T08:27:44;9.50;52.70
30520;DHT22;17300;50.374;8.006;2023-01-16T08:30:11;9.50;52.80
30520;DHT22;17300;50.374;8.006;2023-01-16T08:32:38;9.50;52.90
30520;DHT22;17300;50.374;8.006;2023-01-16T08:35:06;9.50;53.00
30520;DHT22;17300;50.374;8.006;2023-01-16T08:37:33;9.50;53.30
30520;DHT22;17300;50.374;8.006;2023-01-16T08:40:01;9.40;53.20
30520;DHT22;17300;50.374;8.006;2023-01-16T08:42:29;9.40;53.30
30520;DHT22;17300;50.374;8.006;2023-01-16T08:45:13;9.30;53.40
30520;DHT22;17300;50.374;8.006;2023-01-16T08:47:54;9.30;53.60
30520;DHT22;17300;50.374;8.006;2023-01-16T08:50:39;9.20;53.60
30520;DHT22;17300;50.374;8.006;2023-01-16T08:53:23;9.20;53.60
30520;DHT22;17300;50.374;8.006;2023-01-16T08:55:51;9.10;53.60
30520;DHT22;17300;50.374;8.006;2023-01-16T08:58:18;9.00;53.60
30520;DHT22;17300;50.374;8.006;2023-01-16T09:00:46;9.00;53.80
30520;DHT22;17300;50.374;8.006;2023-01-16T09:03:13;8.90;53.90
30520;DHT22;17300;50.374;8.006;2023-01-16T09:05:42;8.80;54.00
30520;DHT22;17300;50.374;8.006;2023-01-16T09:08:08;8.80;54.00
30520;DHT22;17300;50.374;8.006;2023-01-16T09:10:35;8.80;54.30
30520;DHT22;17300;50.374;8.006;2023-01-16T09:13:03;8.80;54.30
30520;DHT22;17300;50.374;8.006;2023-01-16T09:15:48;8.80;54.40
30520;DHT22;17300;50.374;8.006;2023-01-16T09:18:15;8.80;54.40
30520;DHT22;17300;50.374;8.006;2023-01-16T09:20:41;8.70;54.50
30520;DHT22;17300;50.374;8.006;2023-01-16T09:23:08;8.70;54.60
30520;DHT22;17300;50.374;8.006;2023-01-16T09:25:35;8.70;54.50
30520;DHT22;17300;50.374;8.006;2023-01-16T09:28:03;8.70;54.50
30520;DHT22;17300;50.374;8.006;2023-01-16T09:30:30;8.70;54.60
30520;DHT22;17300;50.374;8.006;2023-01-16T09:32:56;8.70;54.60
30520;DHT22;17300;50.374;8.006;2023-01-16T09:35:23;8.70;54.60
30520;DHT22;17300;50.374;8.006;2023-01-16T09:37:50;8.70;54.60
30520;DHT22;17300;50.374;8.006;2023-01-16T09:40:20;8.70;54.60
30520;DHT22;17300;50.374;8.006;2023-01-16T09:43:12;8.70;54.80
30520;DHT22;17300;50.374;8.006;2023-01-16T09:46:03;8.70;54.90
30520;DHT22;17300;50.374;8.006;2023-01-16T09:48:34;8.70;54.80
30520;DHT22;17300;50.374;8.006;2023-01-16T09:51:04;8.70;54.80
30520;DHT22;17300;50.374;8.006;2023-01-16T09:53:37;8.70;54.90
30520;DHT22;17300;50.374;8.006;2023-01-16T09:56:28;8.70;54.90
30520;DHT22;17300;50.374;8.006;2023-01-16T09:59:21;8.80;55.00
30520;DHT22;17300;50.374;8.006;2023-01-16T10:01:53;8.80;55.00
30520;DHT22;17300;50.374;8.006;2023-01-16T10:04:23;8.80;55.00
30520;DHT22;17300;50.374;8.006;2023-01-16T10:07:01;8.80;55.00
30520;DHT22;17300;50.374;8.006;2023-01-16T10:09:33;8.80;55.10
30520;DHT22;17300;50.374;8.006;2023-01-16T10:12:05;8.80;54.90
30520;DHT22;17300;50.374;8.006;2023-01-16T10:14:49;8.70;54.90
30520;DHT22;17300;50.374;8.006;2023-01-16T10:17:25;8.80;55.10
30520;DHT22;17300;50.374;8.006;2023-01-16T10:20:17;8.70;55.00
30520;DHT22;17300;50.374;8.006;2023-01-16T10:23:00;8.70;55.30
30520;DHT22;17300;50.374;8.006;2023-01-16T10:25:33;8.70;55.10
30520;DHT22;17300;50.374;8.006;2023-01-16T10:28:14;8.70;55.00
30520;DHT22;17300;50.374;8.006;2023-01-16T10:30:49;8.70;55.20
30520;DHT22;17300;50.374;8.006;2023-01-16T10:33:22;8.70;55.20
30520;DHT22;17300;50.374;8.006;2023-01-16T10:35:52;8.80;55.40
30520;DHT22;17300;50.374;8.006;2023-01-16T10:38:24;8.80;55.30
30520;DHT22;17300;50.374;8.006;2023-01-16T10:41:03;8.80;55.40
30520;DHT22;17300;50.374;8.006;2023-01-16T10:43:51;8.80;55.30
30520;DHT22;17300;50.374;8.006;2023-01-16T10:46:37;8.90;55.40
30520;DHT22;17300;50.374;8.006;2023-01-16T10:49:37;8.90;55.40
30520;DHT22;17300;50.374;8.006;2023-01-16T10:52:04;9.00;55.40
30520;DHT22;17300;50.374;8.006;2023-01-16T10:54:31;9.10;55.40
30520;DHT22;17300;50.374;8.006;2023-01-16T10:56:58;9.10;55.30
30520;DHT22;17300;50.374;8.006;2023-01-16T10:59:30;9.10;55.30
30520;DHT22;17300;50.374;8.006;2023-01-16T11:02:04;9.10;55.30
30520;DHT22;17300;50.374;8.006;2023-01-16T11:04:39;9.20;55.30
30520;DHT22;17300;50.374;8.006;2023-01-16T11:07:14;9.20;55.30
30520;DHT22;17300;50.374;8.006;2023-01-16T11:09:43;9.30;55.50
30520;DHT22;17300;50.374;8.006;2023-01-16T11:12:14;9.40;55.70
30520;DHT22;17300;50.374;8.006;2023-01-16T11:15:01;9.50;56.00
30520;DHT22;17300;50.374;8.006;2023-01-16T11:17:52;9.60;56.10
30520;DHT22;17300;50.374;8.006;2023-01-16T11:20:36;9.70;56.30
30520;DHT22;17300;50.374;8.006;2023-01-16T11:23:15;9.90;56.50
30520;DHT22;17300;50.374;8.006;2023-01-16T11:25:42;10.00;55.70
30520;DHT22;17300;50.374;8.006;2023-01-16T11:28:13;10.20;55.90
30520;DHT22;17300;50.374;8.006;2023-01-16T11:30:45;10.40;56.00
30520;DHT22;17300;50.374;8.006;2023-01-16T11:33:17;10.60;56.00
30520;DHT22;17300;50.374;8.006;2023-01-16T11:35:51;10.80;56.00
30520;DHT22;17300;50.374;8.006;2023-01-16T11:38:19;11.00;55.90
30520;DHT22;17300;50.374;8.006;2023-01-16T11:40:47;11.20;55.60
30520;DHT22;17300;50.374;8.006;2023-01-16T11:43:16;11.30;55.10
30520;DHT22;17300;50.374;8.006;2023-01-16T11:46:06;11.40;54.70
30520;DHT22;17300;50.374;8.006;2023-01-16T11:48:41;11.50;54.00
30520;DHT22;17300;50.374;8.006;2023-01-16T11:51:13;11.60;53.70
30520;DHT22;17300;50.374;8.006;2023-01-16T11:53:47;11.50;53.30
30520;DHT22;17300;50.374;8.006;2023-01-16T11:56:33;11.50;53.20
30520;DHT22;17300;50.374;8.006;2023-01-16T11:59:15;11.40;52.90
30520;DHT22;17300;50.374;8.006;2023-01-16T12:01:53;11.30;52.80
30520;DHT22;17300;50.374;8.006;2023-01-16T12:04:46;11.30;53.00
30520;DHT22;17300;50.374;8.006;2023-01-16T12:07:41;11.20;53.20
30520;DHT22;17300;50.374;8.006;2023-01-16T12:10:25;11.20;53.50
30520;DHT22;17300;50.374;8.006;2023-01-16T12:13:01;11.20;53.60
30520;DHT22;17300;50.374;8.006;2023-01-16T12:16:06;11.20;53.80
30520;DHT22;17300;50.374;8.006;2023-01-16T12:18:42;11.30;54.00
30520;DHT22;17300;50.374;8.006;2023-01-16T12:21:23;11.40;54.10
30520;DHT22;17300;50.374;8.006;2023-01-16T12:24:10;11.40;53.90
30520;DHT22;17300;50.374;8.006;2023-01-16T12:26:48;11.50;53.90
30520;DHT22;17300;50.374;8.006;2023-01-16T12:29:27;11.70;54.10
30520;DHT22;17300;50.374;8.006;2023-01-16T12:32:26;11.70;53.70
30520;DHT22;17300;50.374;8.006;2023-01-16T12:35:12;11.90;53.70
30520;DHT22;17300;50.374;8.006;2023-01-16T12:38:07;11.90;53.60
30520;DHT22;17300;50.374;8.006;2023-01-16T12:40:46;12.00;53.30
30520;DHT22;17300;50.374;8.006;2023-01-16T12:43:25;12.00;53.20
30520;DHT22;17300;50.374;8.006;2023-01-16T12:45:56;12.00;53.10
30520;DHT22;17300;50.374;8.006;2023-01-16T12:48:41;12.10;53.10
30520;DHT22;17300;50.374;8.006;2023-01-16T12:51:21;12.10;53.00
30520;DHT22;17300;50.374;8.006;2023-01-16T12:54:16;12.20;53.10
30520;DHT22;17300;50.374;8.006;2023-01-16T12:57:03;12.20;52.90
30520;DHT22;17300;50.374;8.006;2023-01-16T12:59:36;12.30;52.80
30520;DHT22;17300;50.374;8.006;2023-01-16T13:02:13;12.30;52.60
30520;DHT22;17300;50.374;8.006;2023-01-16T13:04:44;12.30;52.30
30520;DHT22;17300;50.374;8.006;2023-01-16T13:07:15;12.20;52.30
30520;DHT22;17300;50.374;8.006;2023-01-16T13:09:46;12.20;52.20
30520;DHT22;17300;50.374;8.006;2023-01-16T13:12:17;12.20;52.20
30520;DHT22;17300;50.374;8.006;2023-01-16T13:15:06;12.10;52.20
30520;DHT22;17300;50.374;8.006;2023-01-16T13:17:42;12.00;52.30
30520;DHT22;17300;50.374;8.006;2023-01-16T13:20:12;12.00;52.30
30520;DHT22;17300;50.374;8.006;2023-01-16T13:22:46;11.90;52.20
30520;DHT22;17300;50.374;8.006;2023-01-16T13:25:20;11.80;52.00
30520;DHT22;17300;50.374;8.006;2023-01-16T13:27:52;11.80;52.00
30520;DHT22;17300;50.374;8.006;2023-01-16T13:30:20;11.70;51.90
30520;DHT22;17300;50.374;8.006;2023-01-16T13:32:51;11.60;52.00
30520;DHT22;17300;50.374;8.006;2023-01-16T13:35:23;11.50;52.00
30520;DHT22;17300;50.374;8.006;2023-01-16T13:41:11;11.40;52.20
30520;DHT22;17300;50.374;8.006;2023-01-16T13:43:45;11.30;52.30
30520;DHT22;17300;50.374;8.006;2023-01-16T13:46:31;11.20;52.40
30520;DHT22;17300;50.374;8.006;2023-01-16T13:49:01;11.20;52.30
30520;DHT22;17300;50.374;8.006;2023-01-16T13:51:29;11.10;52.40
30520;DHT22;17300;50.374;8.006;2023-01-16T13:53:57;11.00;52.40
30520;DHT22;17300;50.374;8.006;2023-01-16T13:56:27;10.90;52.60
30520;DHT22;17300;50.374;8.006;2023-01-16T13:58:58;10.80;52.70
30520;DHT22;17300;50.374;8.006;2023-01-16T14:01:31;10.80;52.90
30520;DHT22;17300;50.374;8.006;2023-01-16T14:04:26;10.70;53.00
30520;DHT22;17300;50.374;8.006;2023-01-16T14:06:54;10.60;53.30
30520;DHT22;17300;50.374;8.006;2023-01-16T14:10:17;10.50;52.80
30520;DHT22;17300;50.374;8.006;2023-01-16T14:13:02;10.40;53.40
30520;DHT22;17300;50.374;8.006;2023-01-16T14:15:48;10.20;53.10
30520;DHT22;17300;50.374;8.006;2023-01-16T14:18:39;10.20;54.00
30520;DHT22;17300;50.374;8.006;2023-01-16T14:21:14;10.00;53.20
30520;DHT22;17300;50.374;8.006;2023-01-16T14:23:44;10.00;53.50
30520;DHT22;17300;50.374;8.006;2023-01-16T14:26:38;9.90;54.50
30520;DHT22;17300;50.374;8.006;2023-01-16T14:29:14;9.80;54.60
30520;DHT22;17300;50.374;8.006;2023-01-16T14:31:45;9.80;54.80
30520;DHT22;17300;50.374;8.006;2023-01-16T14:34:20;9.70;54.70
30520;DHT22;17300;50.374;8.006;2023-01-16T14:36:49;9.70;54.90
30520;DHT22;17300;50.374;8.006;2023-01-16T14:39:29;9.60;54.90
30520;DHT22;17300;50.374;8.006;2023-01-16T14:41:58;9.60;55.50
30520;DHT22;17300;50.374;8.006;2023-01-16T14:45:18;9.60;55.30
30520;DHT22;17300;50.374;8.006;2023-01-16T14:48:31;9.50;55.50
30520;DHT22;17300;50.374;8.006;2023-01-16T14:51:18;9.50;55.60
30520;DHT22;17300;50.374;8.006;2023-01-16T14:54:10;9.50;55.30
30520;DHT22;17300;50.374;8.006;2023-01-16T14:57:00;9.50;55.50
30520;DHT22;17300;50.374;8.006;2023-01-16T14:59:32;9.50;55.50
30520;DHT22;17300;50.374;8.006;2023-01-16T15:02:06;9.50;55.80
30520;DHT22;17300;50.374;8.006;2023-01-16T15:04:52;9.50;55.80
30520;DHT22;17300;50.374;8.006;2023-01-16T15:07:23;9.50;55.80
30520;DHT22;17300;50.374;8.006;2023-01-16T15:09:52;9.50;56.00
30520;DHT22;17300;50.374;8.006;2023-01-16T15:12:20;9.60;56.00
30520;DHT22;17300;50.374;8.006;2023-01-16T15:14:52;9.60;56.00
30520;DHT22;17300;50.374;8.006;2023-01-16T15:17:26;9.60;56.10
30520;DHT22;17300;50.374;8.006;2023-01-16T15:20:23;9.70;56.30
30520;DHT22;17300;50.374;8.006;2023-01-16T15:23:23;9.70;56.40
30520;DHT22;17300;50.374;8.006;2023-01-16T15:26:04;9.70;56.40
30520;DHT22;17300;50.374;8.006;2023-01-16T15:28:37;9.70;56.30
30520;DHT22;17300;50.374;8.006;2023-01-16T15:31:07;9.70;56.20
30520;DHT22;17300;50.374;8.006;2023-01-16T15:33:36;9.70;56.20
30520;DHT22;17300;50.374;8.006;2023-01-16T15:36:18;9.70;56.30
30520;DHT22;17300;50.374;8.006;2023-01-16T15:38:47;9.70;56.40
30520;DHT22;17300;50.374;8.006;2023-01-16T15:41:17;9.70;56.20
30520;DHT22;17300;50.374;8.006;2023-01-16T15:43:44;9.70;56.50
30520;DHT22;17300;50.374;8.006;2023-01-16T15:46:46;9.70;56.40
30520;DHT22;17300;50.374;8.006;2023-01-16T15:49:23;9.60;56.70
30520;DHT22;17300;50.374;8.006;2023-01-16T15:51:52;9.60;57.10
30520;DHT22;17300;50.374;8.006;2023-01-16T15:54:19;9.60;57.10
30520;DHT22;17300;50.374;8.006;2023-01-16T15:56:47;9.60;57.40
30520;DHT22;17300;50.374;8.006;2023-01-16T15:59:22;9.50;57.70
30520;DHT22;17300;50.374;8.006;2023-01-16T16:01:49;9.50;57.80
30520;DHT22;17300;50.374;8.006;2023-01-16T16:04:17;9.40;57.70
30520;DHT22;17300;50.374;8.006;2023-01-16T16:06:45;9.40;57.70
30520;DHT22;17300;50.374;8.006;2023-01-16T16:09:17;9.40;57.90
30520;DHT22;17300;50.374;8.006;2023-01-16T16:11:44;9.30;58.30
30520;DHT22;17300;50.374;8.006;2023-01-16T16:14:23;9.30;58.30
30520;DHT22;17300;50.374;8.006;2023-01-16T16:17:20;9.30;58.30
30520;DHT22;17300;50.374;8.006;2023-01-16T16:20:28;9.30;58.60
30520;DHT22;17300;50.374;8.006;2023-01-16T16:22:59;9.20;58.80
30520;DHT22;17300;50.374;8.006;2023-01-16T16:25:30;9.20;58.30
30520;DHT22;17300;50.374;8.006;2023-01-16T16:27:58;9.20;58.30
30520;DHT22;17300;50.374;8.006;2023-01-16T16:30:28;9.20;58.30